sensor_id;sensor_type;location;lat;lon;timestamp;temperature;humidity
13091;DHT22;6611;52.604;13.438;2023-09-07T00:01:06;16.43;80.56
13091;DHT22;6611;52.604;13.438;2023-09-07T00:06:10;16.40;80.67
13091;DHT22;6611;52.604;13.438;2023-09-07T00:11:11;16.29;80.59
13091;DHT22;6611;52.604;13.438;2023-09-07T00:16:13;16.30;80.79
13091;DHT22;6611;52.604;13.438;2023-09-07T00:21:16;16.25;80.82
13091;DHT22;6611;52.604;13.438;2023-09-07T00:26:18;16.21;80.90
13091;DHT22;6611;52.604;13.438;2023-09-07T00:31:19;16.16;81.22
13091;DHT22;6611;52.604;13.438;2023-09-07T00:36:22;16.14;81.26
13091;DHT22;6611;52.604;13.438;2023-09-07T00:41:24;16.11;81.19
13091;DHT22;6611;52.604;13.438;2023-09-07T00:46:26;15.95;81.52
13091;DHT22;6611;52.604;13.438;2023-09-07T00:51:29;16.00;81.53
13091;DHT22;6611;52.604;13.438;2023-09-07T00:56:31;15.88;81.42
13091;DHT22;6611;52.604;13.438;2023-09-07T01:01:33;15.87;81.30
13091;DHT22;6611;52.604;13.438;2023-09-07T01:06:39;15.78;81.53
13091;DHT22;6611;52.604;13.438;2023-09-07T01:11:42;15.76;81.79
13091;DHT22;6611;52.604;13.438;2023-09-07T01:16:44;15.76;82.02
13091;DHT22;6611;52.604;13.438;2023-09-07T01:21:47;15.70;82.14
13091;DHT22;6611;52.604;13.438;2023-09-07T01:26:50;15.70;82.31
13091;DHT22;6611;52.604;13.438;2023-09-07T01:31:52;15.64;82.27
13091;DHT22;6611;52.604;13.438;2023-09-07T01:36:55;15.61;82.31
13091;DHT22;6611;52.604;13.438;2023-09-07T01:41:57;15.56;82.19
13091;DHT22;6611;52.604;13.438;2023-09-07T01:46:58;15.49;82.11
13091;DHT22;6611;52.604;13.438;2023-09-07T01:52:02;15.36;82.29
13091;DHT22;6611;52.604;13.438;2023-09-07T01:57:04;15.38;82.14
13091;DHT22;6611;52.604;13.438;2023-09-07T02:02:05;15.32;82.16
13091;DHT22;6611;52.604;13.438;2023-09-07T02:07:09;15.28;82.13
13091;DHT22;6611;52.604;13.438;2023-09-07T02:12:11;15.18;82.20
13091;DHT22;6611;52.604;13.438;2023-09-07T02:17:12;15.14;82.28
13091;DHT22;6611;52.604;13.438;2023-09-07T02:22:19;15.05;81.98
13091;DHT22;6611;52.604;13.438;2023-09-07T02:27:21;14.99;81.92
13091;DHT22;6611;52.604;13.438;2023-09-07T02:32:22;15.01;82.02
13091;DHT22;6611;52.604;13.438;2023-09-07T02:37:25;14.91;82.06
13091;DHT22;6611;52.604;13.438;2023-09-07T02:42:27;14.79;82.17
13091;DHT22;6611;52.604;13.438;2023-09-07T02:47:29;14.85;81.71
13091;DHT22;6611;52.604;13.438;2023-09-07T02:52:32;14.73;82.13
13091;DHT22;6611;52.604;13.438;2023-09-07T02:57:34;14.69;82.05
13091;DHT22;6611;52.604;13.438;2023-09-07T03:02:37;14.66;82.03
13091;DHT22;6611;52.604;13.438;2023-09-07T03:07:40;14.60;81.96
13091;DHT22;6611;52.604;13.438;2023-09-07T03:12:41;14.60;82.31
13091;DHT22;6611;52.604;13.438;2023-09-07T03:17:43;14.49;82.20
13091;DHT22;6611;52.604;13.438;2023-09-07T03:22:46;14.46;82.26
13091;DHT22;6611;52.604;13.438;2023-09-07T03:27:48;14.42;82.45
13091;DHT22;6611;52.604;13.438;2023-09-07T03:32:50;14.32;82.53
13091;DHT22;6611;52.604;13.438;2023-09-07T03:37:53;14.40;82.43
13091;DHT22;6611;52.604;13.438;2023-09-07T03:42:54;14.43;82.66
13091;DHT22;6611;52.604;13.438;2023-09-07T03:47:56;14.39;82.61
13091;DHT22;6611;52.604;13.438;2023-09-07T03:52:59;14.35;82.66
13091;DHT22;6611;52.604;13.438;2023-09-07T03:58:00;14.30;82.48
13091;DHT22;6611;52.604;13.438;2023-09-07T04:03:02;14.21;82.44
13091;DHT22;6611;52.604;13.438;2023-09-07T04:08:05;14.19;82.09
13091;DHT22;6611;52.604;13.438;2023-09-07T04:13:07;14.21;82.03
13091;DHT22;6611;52.604;13.438;2023-09-07T04:18:09;14.18;82.15
13091;DHT22;6611;52.604;13.438;2023-09-07T04:23:14;14.14;82.38
13091;DHT22;6611;52.604;13.438;2023-09-07T04:28:15;14.17;82.80
13091;DHT22;6611;52.604;13.438;2023-09-07T04:33:17;14.17;82.81
13091;DHT22;6611;52.604;13.438;2023-09-07T04:38:20;14.18;82.60
13091;DHT22;6611;52.604;13.438;2023-09-07T04:43:22;14.11;82.65
13091;DHT22;6611;52.604;13.438;2023-09-07T04:48:24;14.10;82.32
13091;DHT22;6611;52.604;13.438;2023-09-07T04:53:27;14.08;82.31
13091;DHT22;6611;52.604;13.438;2023-09-07T04:58:29;14.04;82.61
13091;DHT22;6611;52.604;13.438;2023-09-07T05:03:31;14.10;83.05
13091;DHT22;6611;52.604;13.438;2023-09-07T05:08:34;14.19;82.99
13091;DHT22;6611;52.604;13.438;2023-09-07T05:13:36;14.30;83.00
13091;DHT22;6611;52.604;13.438;2023-09-07T05:18:40;14.49;82.86
13091;DHT22;6611;52.604;13.438;2023-09-07T05:23:44;14.62;82.78
13091;DHT22;6611;52.604;13.438;2023-09-07T05:28:45;14.79;82.56
13091;DHT22;6611;52.604;13.438;2023-09-07T05:33:47;14.98;82.40
13091;DHT22;6611;52.604;13.438;2023-09-07T05:38:50;15.26;81.88
13091;DHT22;6611;52.604;13.438;2023-09-07T05:43:52;15.69;80.92
13091;DHT22;6611;52.604;13.438;2023-09-07T05:48:54;16.06;79.76
13091;DHT22;6611;52.604;13.438;2023-09-07T05:53:58;16.56;79.02
13091;DHT22;6611;52.604;13.438;2023-09-07T05:58:59;17.01;78.11
13091;DHT22;6611;52.604;13.438;2023-09-07T06:04:01;17.43;77.42
13091;DHT22;6611;52.604;13.438;2023-09-07T06:09:04;17.94;76.54
13091;DHT22;6611;52.604;13.438;2023-09-07T06:14:06;18.40;75.60
13091;DHT22;6611;52.604;13.438;2023-09-07T06:19:08;18.88;75.01
13091;DHT22;6611;52.604;13.438;2023-09-07T06:24:10;19.31;73.98
13091;DHT22;6611;52.604;13.438;2023-09-07T06:29:12;19.78;73.53
13091;DHT22;6611;52.604;13.438;2023-09-07T06:34:14;20.12;72.82
13091;DHT22;6611;52.604;13.438;2023-09-07T06:39:17;20.63;71.48
13091;DHT22;6611;52.604;13.438;2023-09-07T06:44:18;21.18;69.67
13091;DHT22;6611;52.604;13.438;2023-09-07T06:49:20;21.67;68.02
13091;DHT22;6611;52.604;13.438;2023-09-07T06:54:23;22.09;66.13
13091;DHT22;6611;52.604;13.438;2023-09-07T06:59:25;22.44;64.62
13091;DHT22;6611;52.604;13.438;2023-09-07T07:04:27;22.99;63.22
13091;DHT22;6611;52.604;13.438;2023-09-07T07:09:30;23.19;63.08
13091;DHT22;6611;52.604;13.438;2023-09-07T07:14:32;23.40;60.11
13091;DHT22;6611;52.604;13.438;2023-09-07T07:19:33;23.60;62.27
13091;DHT22;6611;52.604;13.438;2023-09-07T07:24:36;23.95;61.04
13091;DHT22;6611;52.604;13.438;2023-09-07T07:29:38;24.19;59.70
13091;DHT22;6611;52.604;13.438;2023-09-07T07:34:39;24.46;58.30
13091;DHT22;6611;52.604;13.438;2023-09-07T07:39:42;24.63;58.46
13091;DHT22;6611;52.604;13.438;2023-09-07T07:44:44;24.82;56.74
13091;DHT22;6611;52.604;13.438;2023-09-07T07:49:46;24.99;55.12
13091;DHT22;6611;52.604;13.438;2023-09-07T07:54:49;25.02;54.28
13091;DHT22;6611;52.604;13.438;2023-09-07T07:59:50;25.37;53.95
13091;DHT22;6611;52.604;13.438;2023-09-07T08:04:52;25.55;55.15
13091;DHT22;6611;52.604;13.438;2023-09-07T08:09:55;25.64;55.63
13091;DHT22;6611;52.604;13.438;2023-09-07T08:14:57;25.95;55.11
13091;DHT22;6611;52.604;13.438;2023-09-07T08:19:58;26.16;53.82
13091;DHT22;6611;52.604;13.438;2023-09-07T08:25:01;26.22;52.19
13091;DHT22;6611;52.604;13.438;2023-09-07T08:30:04;26.26;51.40
13091;DHT22;6611;52.604;13.438;2023-09-07T08:35:08;26.33;52.04
13091;DHT22;6611;52.604;13.438;2023-09-07T08:40:14;26.50;49.90
13091;DHT22;6611;52.604;13.438;2023-09-07T08:45:21;26.79;49.18
13091;DHT22;6611;52.604;13.438;2023-09-07T08:50:24;26.74;49.26
13091;DHT22;6611;52.604;13.438;2023-09-07T08:55:27;26.78;49.89
13091;DHT22;6611;52.604;13.438;2023-09-07T09:00:29;26.93;48.05
13091;DHT22;6611;52.604;13.438;2023-09-07T09:05:31;26.78;47.73
13091;DHT22;6611;52.604;13.438;2023-09-07T09:10:38;26.89;47.63
13091;DHT22;6611;52.604;13.438;2023-09-07T09:15:39;26.86;45.23
13091;DHT22;6611;52.604;13.438;2023-09-07T09:20:41;26.86;46.03
13091;DHT22;6611;52.604;13.438;2023-09-07T09:25:44;27.04;44.71
13091;DHT22;6611;52.604;13.438;2023-09-07T09:30:46;27.23;44.51
13091;DHT22;6611;52.604;13.438;2023-09-07T09:35:47;27.29;44.44
13091;DHT22;6611;52.604;13.438;2023-09-07T09:40:51;27.41;47.48
13091;DHT22;6611;52.604;13.438;2023-09-07T09:45:53;27.37;46.36
13091;DHT22;6611;52.604;13.438;2023-09-07T09:50:55;27.43;44.28
13091;DHT22;6611;52.604;13.438;2023-09-07T09:55:59;27.48;45.86
13091;DHT22;6611;52.604;13.438;2023-09-07T10:01:01;27.53;44.81
13091;DHT22;6611;52.604;13.438;2023-09-07T10:06:09;27.61;45.86
13091;DHT22;6611;52.604;13.438;2023-09-07T10:11:12;27.81;44.20
13091;DHT22;6611;52.604;13.438;2023-09-07T10:16:14;27.61;44.12
13091;DHT22;6611;52.604;13.438;2023-09-07T10:21:16;27.50;43.41
13091;DHT22;6611;52.604;13.438;2023-09-07T10:26:20;27.54;44.66
13091;DHT22;6611;52.604;13.438;2023-09-07T10:31:24;27.64;43.78
13091;DHT22;6611;52.604;13.438;2023-09-07T10:36:27;27.66;44.12
13091;DHT22;6611;52.604;13.438;2023-09-07T10:41:39;27.65;44.82
13091;DHT22;6611;52.604;13.438;2023-09-07T10:46:42;27.69;43.24
13091;DHT22;6611;52.604;13.438;2023-09-07T10:51:45;27.79;42.41
13091;DHT22;6611;52.604;13.438;2023-09-07T10:56:48;28.13;44.10
13091;DHT22;6611;52.604;13.438;2023-09-07T11:01:50;28.36;43.52
13091;DHT22;6611;52.604;13.438;2023-09-07T11:06:53;28.30;40.53
13091;DHT22;6611;52.604;13.438;2023-09-07T11:11:56;28.27;41.22
13091;DHT22;6611;52.604;13.438;2023-09-07T11:16:58;28.33;40.45
13091;DHT22;6611;52.604;13.438;2023-09-07T11:22:00;28.36;41.03
13091;DHT22;6611;52.604;13.438;2023-09-07T11:27:08;28.50;40.60
13091;DHT22;6611;52.604;13.438;2023-09-07T11:32:12;28.48;38.90
13091;DHT22;6611;52.604;13.438;2023-09-07T11:37:14;28.57;41.19
13091;DHT22;6611;52.604;13.438;2023-09-07T11:42:17;28.65;40.01
13091;DHT22;6611;52.604;13.438;2023-09-07T11:47:19;28.80;40.11
13091;DHT22;6611;52.604;13.438;2023-09-07T11:52:20;28.61;38.94
13091;DHT22;6611;52.604;13.438;2023-09-07T11:57:23;28.82;38.71
13091;DHT22;6611;52.604;13.438;2023-09-07T12:02:26;28.92;39.60
13091;DHT22;6611;52.604;13.438;2023-09-07T12:07:27;29.03;38.25
13091;DHT22;6611;52.604;13.438;2023-09-07T12:12:30;28.89;38.99
13091;DHT22;6611;52.604;13.438;2023-09-07T12:17:33;29.02;39.60
13091;DHT22;6611;52.604;13.438;2023-09-07T12:22:35;29.09;40.19
13091;DHT22;6611;52.604;13.438;2023-09-07T12:27:39;29.14;40.69
13091;DHT22;6611;52.604;13.438;2023-09-07T12:32:40;29.30;40.61
13091;DHT22;6611;52.604;13.438;2023-09-07T12:37:42;29.31;39.45
13091;DHT22;6611;52.604;13.438;2023-09-07T12:42:45;29.20;40.19
13091;DHT22;6611;52.604;13.438;2023-09-07T12:47:47;28.93;40.00
13091;DHT22;6611;52.604;13.438;2023-09-07T12:52:49;29.07;39.70
13091;DHT22;6611;52.604;13.438;2023-09-07T12:57:52;29.13;39.49
13091;DHT22;6611;52.604;13.438;2023-09-07T13:02:53;29.00;38.77
13091;DHT22;6611;52.604;13.438;2023-09-07T13:07:55;29.24;38.12
13091;DHT22;6611;52.604;13.438;2023-09-07T13:13:00;29.20;39.05
13091;DHT22;6611;52.604;13.438;2023-09-07T13:18:02;29.26;39.30
13091;DHT22;6611;52.604;13.438;2023-09-07T13:23:04;29.27;36.90
13091;DHT22;6611;52.604;13.438;2023-09-07T13:28:07;29.28;38.54
13091;DHT22;6611;52.604;13.438;2023-09-07T13:33:09;29.14;37.09
13091;DHT22;6611;52.604;13.438;2023-09-07T13:38:10;28.91;36.76
13091;DHT22;6611;52.604;13.438;2023-09-07T13:43:13;28.79;36.72
13091;DHT22;6611;52.604;13.438;2023-09-07T13:48:15;28.89;37.78
13091;DHT22;6611;52.604;13.438;2023-09-07T13:53:16;28.75;37.83
13091;DHT22;6611;52.604;13.438;2023-09-07T13:58:19;28.67;38.51
13091;DHT22;6611;52.604;13.438;2023-09-07T14:03:21;28.72;37.77
13091;DHT22;6611;52.604;13.438;2023-09-07T14:08:23;28.79;38.65
13091;DHT22;6611;52.604;13.438;2023-09-07T14:13:26;28.72;38.21
13091;DHT22;6611;52.604;13.438;2023-09-07T14:18:27;28.71;38.86
13091;DHT22;6611;52.604;13.438;2023-09-07T14:23:29;28.76;37.73
13091;DHT22;6611;52.604;13.438;2023-09-07T14:28:32;28.61;38.48
13091;DHT22;6611;52.604;13.438;2023-09-07T14:33:35;28.64;39.40
13091;DHT22;6611;52.604;13.438;2023-09-07T14:38:38;28.75;37.12
13091;DHT22;6611;52.604;13.438;2023-09-07T14:43:43;28.65;39.79
13091;DHT22;6611;52.604;13.438;2023-09-07T14:48:45;28.50;39.02
13091;DHT22;6611;52.604;13.438;2023-09-07T14:53:49;28.51;39.51
13091;DHT22;6611;52.604;13.438;2023-09-07T14:58:52;28.40;38.78
13091;DHT22;6611;52.604;13.438;2023-09-07T15:03:53;28.33;39.33
13091;DHT22;6611;52.604;13.438;2023-09-07T15:08:56;28.40;39.71
13091;DHT22;6611;52.604;13.438;2023-09-07T15:13:59;28.36;38.62
13091;DHT22;6611;52.604;13.438;2023-09-07T15:19:00;28.33;38.55
13091;DHT22;6611;52.604;13.438;2023-09-07T15:24:04;28.25;37.86
13091;DHT22;6611;52.604;13.438;2023-09-07T15:29:07;28.18;38.59
13091;DHT22;6611;52.604;13.438;2023-09-07T15:34:09;28.14;39.96
13091;DHT22;6611;52.604;13.438;2023-09-07T15:39:11;28.09;40.19
13091;DHT22;6611;52.604;13.438;2023-09-07T15:44:14;28.03;37.96
13091;DHT22;6611;52.604;13.438;2023-09-07T15:49:16;28.09;38.92
13091;DHT22;6611;52.604;13.438;2023-09-07T15:54:18;27.97;39.42
13091;DHT22;6611;52.604;13.438;2023-09-07T15:59:21;27.90;40.15
13091;DHT22;6611;52.604;13.438;2023-09-07T16:04:23;27.77;40.41
13091;DHT22;6611;52.604;13.438;2023-09-07T16:09:24;27.55;40.65
13091;DHT22;6611;52.604;13.438;2023-09-07T16:14:28;27.47;39.65
13091;DHT22;6611;52.604;13.438;2023-09-07T16:19:30;27.34;40.20
13091;DHT22;6611;52.604;13.438;2023-09-07T16:24:32;27.24;40.91
13091;DHT22;6611;52.604;13.438;2023-09-07T16:29:35;27.13;42.05
13091;DHT22;6611;52.604;13.438;2023-09-07T16:34:36;26.92;42.10
13091;DHT22;6611;52.604;13.438;2023-09-07T16:39:38;26.86;43.37
13091;DHT22;6611;52.604;13.438;2023-09-07T16:44:43;26.71;43.46
13091;DHT22;6611;52.604;13.438;2023-09-07T16:49:44;26.55;44.53
13091;DHT22;6611;52.604;13.438;2023-09-07T16:54:46;26.41;44.18
13091;DHT22;6611;52.604;13.438;2023-09-07T16:59:51;26.30;45.16
13091;DHT22;6611;52.604;13.438;2023-09-07T17:04:52;26.07;46.86
13091;DHT22;6611;52.604;13.438;2023-09-07T17:09:54;25.77;48.74
13091;DHT22;6611;52.604;13.438;2023-09-07T17:14:57;25.34;50.83
13091;DHT22;6611;52.604;13.438;2023-09-07T17:19:59;25.05;51.08
13091;DHT22;6611;52.604;13.438;2023-09-07T17:25:02;24.74;53.01
13091;DHT22;6611;52.604;13.438;2023-09-07T17:30:06;24.61;52.64
13091;DHT22;6611;52.604;13.438;2023-09-07T17:35:09;24.38;54.03
13091;DHT22;6611;52.604;13.438;2023-09-07T17:40:11;24.19;54.51
13091;DHT22;6611;52.604;13.438;2023-09-07T17:45:15;23.89;55.77
13091;DHT22;6611;52.604;13.438;2023-09-07T17:50:17;23.57;56.70
13091;DHT22;6611;52.604;13.438;2023-09-07T17:55:19;23.39;57.02
13091;DHT22;6611;52.604;13.438;2023-09-07T18:00:22;23.12;57.70
13091;DHT22;6611;52.604;13.438;2023-09-07T18:05:24;22.87;58.78
13091;DHT22;6611;52.604;13.438;2023-09-07T18:10:25;22.64;59.53
13091;DHT22;6611;52.604;13.438;2023-09-07T18:15:28;22.41;60.06
13091;DHT22;6611;52.604;13.438;2023-09-07T18:20:30;22.17;60.59
13091;DHT22;6611;52.604;13.438;2023-09-07T18:25:34;22.03;60.84
13091;DHT22;6611;52.604;13.438;2023-09-07T18:30:39;21.92;60.97
13091;DHT22;6611;52.604;13.438;2023-09-07T18:35:41;21.79;61.43
13091;DHT22;6611;52.604;13.438;2023-09-07T18:40:43;21.73;61.71
13091;DHT22;6611;52.604;13.438;2023-09-07T18:45:47;21.58;62.31
13091;DHT22;6611;52.604;13.438;2023-09-07T18:50:49;21.48;62.69
13091;DHT22;6611;52.604;13.438;2023-09-07T18:55:50;21.32;63.01
13091;DHT22;6611;52.604;13.438;2023-09-07T19:00:53;21.15;63.61
13091;DHT22;6611;52.604;13.438;2023-09-07T19:05:55;21.03;63.74
13091;DHT22;6611;52.604;13.438;2023-09-07T19:10:57;20.95;64.09
13091;DHT22;6611;52.604;13.438;2023-09-07T19:16:00;20.82;64.32
13091;DHT22;6611;52.604;13.438;2023-09-07T19:21:01;20.78;64.39
13091;DHT22;6611;52.604;13.438;2023-09-07T19:26:28;20.60;64.94
13091;DHT22;6611;52.604;13.438;2023-09-07T19:31:31;20.45;65.34
13091;DHT22;6611;52.604;13.438;2023-09-07T19:36:32;20.36;65.50
13091;DHT22;6611;52.604;13.438;2023-09-07T19:41:38;20.19;66.21
13091;DHT22;6611;52.604;13.438;2023-09-07T19:46:40;20.10;66.57
13091;DHT22;6611;52.604;13.438;2023-09-07T19:51:41;19.98;66.73
13091;DHT22;6611;52.604;13.438;2023-09-07T19:56:45;19.95;66.85
13091;DHT22;6611;52.604;13.438;2023-09-07T20:01:53;19.79;67.26
13091;DHT22;6611;52.604;13.438;2023-09-07T20:06:55;19.71;67.49
13091;DHT22;6611;52.604;13.438;2023-09-07T20:11:59;19.60;67.68
13091;DHT22;6611;52.604;13.438;2023-09-07T20:17:01;19.54;68.12
13091;DHT22;6611;52.604;13.438;2023-09-07T20:22:03;19.45;68.39
13091;DHT22;6611;52.604;13.438;2023-09-07T20:27:06;19.47;68.62
13091;DHT22;6611;52.604;13.438;2023-09-07T20:32:09;19.37;68.87
13091;DHT22;6611;52.604;13.438;2023-09-07T20:37:10;19.33;68.98
13091;DHT22;6611;52.604;13.438;2023-09-07T20:42:13;19.40;68.70
13091;DHT22;6611;52.604;13.438;2023-09-07T20:47:15;19.39;68.90
13091;DHT22;6611;52.604;13.438;2023-09-07T20:52:17;19.51;68.19
13091;DHT22;6611;52.604;13.438;2023-09-07T20:57:20;19.58;68.18
13091;DHT22;6611;52.604;13.438;2023-09-07T21:02:22;19.56;68.04
13091;DHT22;6611;52.604;13.438;2023-09-07T21:07:24;19.63;67.99
13091;DHT22;6611;52.604;13.438;2023-09-07T21:12:27;19.71;67.32
13091;DHT22;6611;52.604;13.438;2023-09-07T21:17:28;19.60;67.80
13091;DHT22;6611;52.604;13.438;2023-09-07T21:22:30;19.50;68.12
13091;DHT22;6611;52.604;13.438;2023-09-07T21:27:34;19.40;68.74
13091;DHT22;6611;52.604;13.438;2023-09-07T21:32:35;19.27;69.02
13091;DHT22;6611;52.604;13.438;2023-09-07T21:37:37;19.19;69.20
13091;DHT22;6611;52.604;13.438;2023-09-07T21:42:40;19.15;69.21
13091;DHT22;6611;52.604;13.438;2023-09-07T21:47:42;19.20;69.17
13091;DHT22;6611;52.604;13.438;2023-09-07T21:52:44;19.08;69.58
13091;DHT22;6611;52.604;13.438;2023-09-07T21:57:47;18.78;70.17
13091;DHT22;6611;52.604;13.438;2023-09-07T22:02:49;18.59;70.87
13091;DHT22;6611;52.604;13.438;2023-09-07T22:07:51;18.43;71.22
13091;DHT22;6611;52.604;13.438;2023-09-07T22:12:54;18.33;71.79
13091;DHT22;6611;52.604;13.438;2023-09-07T22:17:59;18.30;72.03
13091;DHT22;6611;52.604;13.438;2023-09-07T22:23:01;18.25;72.20
13091;DHT22;6611;52.604;13.438;2023-09-07T22:28:06;18.16;72.39
13091;DHT22;6611;52.604;13.438;2023-09-07T22:33:09;18.06;72.68
13091;DHT22;6611;52.604;13.438;2023-09-07T22:38:11;17.92;73.13
13091;DHT22;6611;52.604;13.438;2023-09-07T22:43:14;17.85;73.42
13091;DHT22;6611;52.604;13.438;2023-09-07T22:48:16;17.81;73.69
13091;DHT22;6611;52.604;13.438;2023-09-07T22:53:18;17.77;73.86
13091;DHT22;6611;52.604;13.438;2023-09-07T22:58:23;17.66;74.03
13091;DHT22;6611;52.604;13.438;2023-09-07T23:03:25;17.54;74.41
13091;DHT22;6611;52.604;13.438;2023-09-07T23:08:27;17.47;74.67
13091;DHT22;6611;52.604;13.438;2023-09-07T23:13:32;17.39;75.09
13091;DHT22;6611;52.604;13.438;2023-09-07T23:18:35;17.25;75.26
13091;DHT22;6611;52.604;13.438;2023-09-07T23:23:37;17.12;75.59
13091;DHT22;6611;52.604;13.438;2023-09-07T23:28:41;17.01;75.71
13091;DHT22;6611;52.604;13.438;2023-09-07T23:33:42;16.88;76.13
13091;DHT22;6611;52.604;13.438;2023-09-07T23:38:44;16.85;76.06
13091;DHT22;6611;52.604;13.438;2023-09-07T23:43:47;16.74;76.36
13091;DHT22;6611;52.604;13.438;2023-09-07T23:48:49;16.63;76.71
13091;DHT22;6611;52.604;13.438;2023-09-07T23:53:50;16.56;76.92
13091;DHT22;6611;52.604;13.438;2023-09-07T23:58:53;16.49;76.96
